Time;durP1;ratioP1;P1;durP2;ratioP2;P2;SDS_P1;SDS_P2;PMS_P1;PMS_P2;Temp;Humidity;BMP_temperature;BMP_pressure;BME280_temperature;BME280_humidity;BME280_pressure;Samples;Min_cycle;Max_cycle;Signal;HPM_P1;HPM_P2
2022/10/07 00:01:58;;;;;;;;;;;;;;;12.09;72.59;100173.25;6149445;23;1002;-76
2022/10/07 00:04:24;;;;;;;;;;;;;;;12.28;72.08;100180.94;6126299;23;1262;-75
2022/10/07 00:06:51;;;;;;;;;;;;;;;12.26;72.30;100185.78;6151177;23;1897;-76
2022/10/07 00:09:17;;;;;;;;;;;;;;;12.26;72.08;100182.25;6151139;23;959;-76
2022/10/07 00:11:44;;;;;;;;;;;;;;;11.74;72.44;100114.78;6125018;23;972;-76
2022/10/07 00:14:11;;;;;;;;;;;;;;;12.34;71.91;100176.47;6152530;23;988;-76
2022/10/07 00:16:37;;;;;;;;;;;;;;;12.22;72.34;100170.28;6151190;23;983;-76
2022/10/07 00:19:04;;;;;;;;;;;;;;;12.14;72.30;100162.56;6150577;23;983;-76
2022/10/07 00:21:30;;;;;;;;;;;;;;;12.14;72.52;100149.88;6124425;23;1188;-76
2022/10/07 00:23:57;;;;;;;;;;;;;;;12.00;72.86;100152.06;6150663;23;1070;-76
2022/10/07 00:26:23;;;;;;;;;;;;;;;12.10;72.64;100154.13;6150398;23;979;-76
2022/10/07 00:28:50;;;;;;;;;;;;;;;12.04;72.66;100157.78;6150427;23;1984;-76
2022/10/07 00:31:16;;;;;;;;;;;;;;;11.97;72.94;100157.94;6149614;23;948;-77
2022/10/07 00:33:43;;;;;;;;;;;;;;;12.06;72.66;100161.09;6123221;23;936;-77
2022/10/07 00:36:10;;;;;;;;;;;;;;;11.95;73.21;100154.66;6125356;23;1157;-77
2022/10/07 00:38:36;;;;;;;;;;;;;;;12.04;72.82;100152.41;6149824;23;960;-77
2022/10/07 00:41:03;;;;;;;;;;;;;;;11.92;73.05;100135.41;6151015;23;998;-77
2022/10/07 00:43:30;;;;;;;;;;;;;;;11.73;73.73;100129.31;6150125;23;983;-77
2022/10/07 00:45:56;;;;;;;;;;;;;;;11.66;73.90;100126.75;6150396;23;995;-78
2022/10/07 00:48:23;;;;;;;;;;;;;;;11.59;74.43;100121.47;6150229;23;1944;-76
2022/10/07 00:50:49;;;;;;;;;;;;;;;11.73;73.80;100129.31;6149679;23;960;-78
2022/10/07 00:53:16;;;;;;;;;;;;;;;11.67;74.00;100132.97;6151132;23;1199;-78
2022/10/07 00:55:42;;;;;;;;;;;;;;;11.73;74.01;100132.81;6150160;23;939;-78
2022/10/07 00:58:09;;;;;;;;;;;;;;;11.62;74.16;100133.69;6148962;23;964;-77
2022/10/07 01:00:35;;;;;;;;;;;;;;;11.67;73.96;100127.56;6146486;23;995;-77
2022/10/07 01:03:02;;;;;;;;;;;;;;;11.47;73.44;100068.59;6150760;23;940;-78
2022/10/07 01:05:28;;;;;;;;;;;;;;;11.57;74.51;100130.88;6150824;23;848;-78
2022/10/07 01:07:55;;;;;;;;;;;;;;;11.58;74.44;100129.81;6150206;23;1900;-78
2022/10/07 01:10:23;;;;;;;;;;;;;;;11.57;74.34;100130.88;6150312;23;932;-78
2022/10/07 01:12:50;;;;;;;;;;;;;;;11.70;73.99;100127.09;6150688;23;880;-78
2022/10/07 01:15:16;;;;;;;;;;;;;;;11.86;73.57;100126.41;6149449;23;964;-77
2022/10/07 01:17:45;;;;;;;;;;;;;;;11.61;74.26;100129.31;6150067;23;924;-77
2022/10/07 01:20:11;;;;;;;;;;;;;;;11.60;74.31;100128.50;6151431;23;916;-77
2022/10/07 01:22:38;;;;;;;;;;;;;;;11.46;74.75;100129.81;6150353;23;1213;-77
2022/10/07 01:25:05;;;;;;;;;;;;;;;11.56;74.30;100130.06;6151294;23;939;-77
2022/10/07 01:27:31;;;;;;;;;;;;;;;11.56;74.40;100132.75;6149011;23;1940;-77
2022/10/07 01:29:58;;;;;;;;;;;;;;;11.48;74.79;100129.59;6147435;23;888;-77
2022/10/07 01:32:24;;;;;;;;;;;;;;;11.62;74.18;100125.59;6149643;23;944;-77
2022/10/07 01:34:51;;;;;;;;;;;;;;;11.53;74.46;100129.69;6149725;23;905;-77
2022/10/07 01:37:17;;;;;;;;;;;;;;;11.39;74.91;100133.69;6151340;23;833;-77
2022/10/07 01:39:44;;;;;;;;;;;;;;;11.45;74.66;100127.38;6149654;23;863;-77
2022/10/07 01:42:10;;;;;;;;;;;;;;;11.59;74.15;100131.47;6149645;23;800;-77
2022/10/07 01:44:37;;;;;;;;;;;;;;;11.45;74.62;100122.78;6148872;23;938;-77
2022/10/07 01:47:03;;;;;;;;;;;;;;;11.24;75.58;100120.69;6149117;23;899;-77
2022/10/07 01:49:30;;;;;;;;;;;;;;;11.35;75.25;100122.53;6150869;23;1897;-77
2022/10/07 01:51:56;;;;;;;;;;;;;;;11.23;75.54;100121.72;6151000;23;1337;-77
2022/10/07 01:54:23;;;;;;;;;;;;;;;11.34;75.25;100116.34;6151134;23;841;-77
2022/10/07 01:56:50;;;;;;;;;;;;;;;11.26;75.34;100123.97;6149898;23;991;-77
2022/10/07 01:59:16;;;;;;;;;;;;;;;11.21;75.53;100115.78;6150253;23;836;-76
2022/10/07 02:01:43;;;;;;;;;;;;;;;10.75;75.60;100058.91;6147925;23;959;-77
2022/10/07 02:04:10;;;;;;;;;;;;;;;11.17;75.80;100123.47;6123812;23;1310;-77
2022/10/07 02:06:36;;;;;;;;;;;;;;;11.20;75.75;100119.50;6151034;23;848;-77
2022/10/07 02:09:03;;;;;;;;;;;;;;;11.26;75.50;100110.47;6149875;23;1897;-77
2022/10/07 02:11:29;;;;;;;;;;;;;;;11.13;75.89;100106.97;6150544;23;864;-77
2022/10/07 02:13:57;;;;;;;;;;;;;;;11.17;75.76;100096.53;6151922;23;824;-78
2022/10/07 02:16:24;;;;;;;;;;;;;;;11.22;75.52;100085.88;6151070;23;948;-77
2022/10/07 02:18:50;;;;;;;;;;;;;;;11.11;75.96;100087.50;6151952;23;836;-77
2022/10/07 02:21:17;;;;;;;;;;;;;;;11.27;75.34;100077.09;6151650;23;781;-77
2022/10/07 02:23:43;;;;;;;;;;;;;;;11.30;75.25;100074.75;6152182;23;1066;-77
2022/10/07 02:26:12;;;;;;;;;;;;;;;11.15;75.65;100071.72;6153402;23;832;-77
2022/10/07 02:28:39;;;;;;;;;;;;;;;11.26;75.51;100078.13;6151830;23;1935;-77
2022/10/07 02:31:05;;;;;;;;;;;;;;;11.13;75.68;100069.22;6150241;23;844;-77
2022/10/07 02:33:31;;;;;;;;;;;;;;;11.23;75.24;100055.16;6151005;23;781;-77
2022/10/07 02:35:59;;;;;;;;;;;;;;;11.28;75.15;100049.06;6152218;23;795;-77
2022/10/07 02:38:26;;;;;;;;;;;;;;;11.24;75.32;100029.03;6151975;23;817;-77
2022/10/07 02:40:53;;;;;;;;;;;;;;;11.12;75.90;100047.94;6150608;23;833;-77
2022/10/07 02:43:19;;;;;;;;;;;;;;;11.09;75.92;100041.13;6125770;23;1315;-77
2022/10/07 02:45:46;;;;;;;;;;;;;;;11.04;76.19;100037.50;6151173;23;837;-77
2022/10/07 02:48:13;;;;;;;;;;;;;;;11.14;75.80;100046.59;6151074;23;1941;-77
2022/10/07 02:50:41;;;;;;;;;;;;;;;11.09;75.99;100034.91;6150754;23;821;-77
2022/10/07 02:53:07;;;;;;;;;;;;;;;11.01;76.36;100027.19;6152829;23;1208;-77
2022/10/07 02:55:34;;;;;;;;;;;;;;;11.01;76.33;100028.00;6152489;23;844;-77
2022/10/07 02:58:01;;;;;;;;;;;;;;;11.00;76.20;100014.75;6151714;23;978;-77
2022/10/07 03:00:28;;;;;;;;;;;;;;;11.02;76.30;100013.47;6149487;23;880;-77
2022/10/07 03:02:54;;;;;;;;;;;;;;;11.07;76.10;100018.97;6151050;23;817;-77
2022/10/07 03:05:21;;;;;;;;;;;;;;;11.16;75.72;100013.22;6150898;23;805;-77
2022/10/07 03:07:47;;;;;;;;;;;;;;;11.05;76.14;100009.47;6151522;23;1893;-77
2022/10/07 03:10:14;;;;;;;;;;;;;;;11.02;76.20;99999.16;6150436;23;828;-77
2022/10/07 03:12:41;;;;;;;;;;;;;;;11.07;75.92;99992.03;6151621;23;777;-77
2022/10/07 03:15:09;;;;;;;;;;;;;;;11.14;75.74;99983.81;6151052;23;726;-77
2022/10/07 03:17:35;;;;;;;;;;;;;;;11.04;76.12;99970.13;6124778;23;1295;-77
2022/10/07 03:20:02;;;;;;;;;;;;;;;11.06;76.04;99965.28;6150864;23;833;-77
2022/10/07 03:22:29;;;;;;;;;;;;;;;11.14;75.72;99956.84;6150217;23;1270;-77
2022/10/07 03:24:55;;;;;;;;;;;;;;;11.13;75.67;99956.03;6153358;23;804;-77
2022/10/07 03:27:21;;;;;;;;;;;;;;;11.14;75.67;99949.59;6150515;23;816;-77
2022/10/07 03:29:49;;;;;;;;;;;;;;;11.07;76.05;99935.44;6148806;23;1932;-77
2022/10/07 03:32:16;;;;;;;;;;;;;;;11.02;76.03;99931.81;6125109;23;863;-77
2022/10/07 03:34:42;;;;;;;;;;;;;;;11.06;76.01;99917.63;6124761;23;817;-77
2022/10/07 03:37:09;;;;;;;;;;;;;;;11.12;75.72;99908.59;6125322;23;856;-77
2022/10/07 03:39:35;;;;;;;;;;;;;;;11.10;75.87;99902.63;6125513;23;904;-77
2022/10/07 03:42:02;;;;;;;;;;;;;;;11.05;76.12;99896.31;6150715;23;836;-77
2022/10/07 03:44:28;;;;;;;;;;;;;;;11.01;76.21;99884.38;6124997;23;868;-77
2022/10/07 03:46:57;;;;;;;;;;;;;;;11.09;75.97;99874.03;6150329;23;789;-77
2022/10/07 03:49:24;;;;;;;;;;;;;;;11.06;76.13;99861.03;6125156;23;1936;-77
2022/10/07 03:51:51;;;;;;;;;;;;;;;11.02;76.07;99862.56;6150843;23;1215;-77
2022/10/07 03:54:17;;;;;;;;;;;;;;;11.08;75.83;99844.63;6151048;23;820;-77
2022/10/07 03:56:44;;;;;;;;;;;;;;;10.98;76.25;99849.81;6125431;23;865;-77
2022/10/07 03:59:10;;;;;;;;;;;;;;;10.55;76.24;99778.38;6149195;23;825;-77
2022/10/07 04:01:38;;;;;;;;;;;;;;;10.97;76.32;99830.16;6150145;23;927;-77
2022/10/07 04:04:06;;;;;;;;;;;;;;;11.03;76.09;99818.41;6150047;23;833;-77
2022/10/07 04:06:32;;;;;;;;;;;;;;;10.97;76.20;99816.69;6124219;23;1236;-77
2022/10/07 04:08:59;;;;;;;;;;;;;;;10.96;76.38;99804.25;6150549;23;1934;-77
2022/10/07 04:11:26;;;;;;;;;;;;;;;10.95;76.38;99799.13;6126410;23;841;-77
2022/10/07 04:13:52;;;;;;;;;;;;;;;10.97;76.40;99802.38;6150885;23;828;-76
2022/10/07 04:16:19;;;;;;;;;;;;;;;10.97;76.36;99802.38;6150765;23;846;-76
2022/10/07 04:18:46;;;;;;;;;;;;;;;10.96;76.30;99787.28;6153464;23;848;-76
2022/10/07 04:21:12;;;;;;;;;;;;;;;10.97;76.27;99780.81;6149834;23;832;-76
2022/10/07 04:23:39;;;;;;;;;;;;;;;10.99;76.34;99773.31;6150068;23;1270;-76
2022/10/07 04:26:05;;;;;;;;;;;;;;;11.04;76.05;99765.34;6152522;23;829;-76
2022/10/07 04:28:32;;;;;;;;;;;;;;;10.99;76.20;99755.28;6150724;23;1932;-76
2022/10/07 04:30:58;;;;;;;;;;;;;;;10.97;76.46;99743.09;6149508;23;809;-76
2022/10/07 04:33:25;;;;;;;;;;;;;;;10.98;76.44;99744.75;6150567;23;769;-76
2022/10/07 04:35:51;;;;;;;;;;;;;;;10.97;76.28;99733.16;6150148;23;813;-77
2022/10/07 04:38:18;;;;;;;;;;;;;;;11.03;76.19;99740.28;6150653;23;802;-77
2022/10/07 04:40:44;;;;;;;;;;;;;;;11.02;76.29;99729.72;6123564;23;1696;-77
2022/10/07 04:43:19;;;;;;;;;;;;;;;10.99;76.31;99728.31;6151216;23;789;-76
2022/10/07 04:45:45;;;;;;;;;;;;;;;10.98;76.51;99747.44;6122704;23;1338;-77
2022/10/07 04:48:12;;;;;;;;;;;;;;;11.01;76.52;99722.72;6150131;23;1939;-77
2022/10/07 04:50:38;;;;;;;;;;;;;;;11.02;76.57;99727.03;6149699;23;821;-77
2022/10/07 04:53:05;;;;;;;;;;;;;;;11.01;76.65;99720.81;6123503;23;1289;-77
2022/10/07 04:55:32;;;;;;;;;;;;;;;11.02;76.73;99708.97;6152002;23;833;-77
2022/10/07 04:57:58;;;;;;;;;;;;;;;11.21;75.68;99716.84;6151807;23;805;-77
2022/10/07 05:00:25;;;;;;;;;;;;;;;11.06;76.32;99693.97;6148142;23;813;-77
2022/10/07 05:02:51;;;;;;;;;;;;;;;11.02;76.98;99686.59;6149266;23;809;-77
2022/10/07 05:05:18;;;;;;;;;;;;;;;11.03;76.63;99696.31;6150207;23;828;-76
2022/10/07 05:07:46;;;;;;;;;;;;;;;11.02;76.77;99695.50;6123134;23;829;-77
2022/10/07 05:10:12;;;;;;;;;;;;;;;11.06;76.42;99696.66;6149616;23;1940;-77
2022/10/07 05:12:40;;;;;;;;;;;;;;;11.07;76.59;99695.59;6151480;23;1337;-77
2022/10/07 05:15:06;;;;;;;;;;;;;;;11.20;76.06;99702.53;6149249;23;903;-77
2022/10/07 05:17:33;;;;;;;;;;;;;;;11.13;76.27;99700.00;6149740;23;865;-77
2022/10/07 05:19:59;;;;;;;;;;;;;;;11.08;76.56;99693.72;6151579;23;845;-77
2022/10/07 05:22:26;;;;;;;;;;;;;;;11.11;76.46;99699.44;6127000;23;1364;-77
2022/10/07 05:24:53;;;;;;;;;;;;;;;11.06;76.58;99702.06;6129868;23;1244;-77
2022/10/07 05:27:19;;;;;;;;;;;;;;;11.01;76.81;99706.53;6128583;23;1355;-77
2022/10/07 05:29:46;;;;;;;;;;;;;;;11.00;76.96;99716.50;6153732;23;1936;-77
2022/10/07 05:32:12;;;;;;;;;;;;;;;11.14;76.45;99690.84;6153604;23;848;-77
2022/10/07 05:34:39;;;;;;;;;;;;;;;11.06;76.84;99710.16;6152526;23;796;-77
2022/10/07 05:37:05;;;;;;;;;;;;;;;11.19;76.75;99702.81;6149639;23;825;-77
2022/10/07 05:39:32;;;;;;;;;;;;;;;11.24;76.15;99692.91;6149639;23;838;-77
2022/10/07 05:41:59;;;;;;;;;;;;;;;11.12;76.63;99689.50;6149555;23;1007;-76
2022/10/07 05:44:25;;;;;;;;;;;;;;;11.26;75.83;99671.91;6150295;23;952;-77
2022/10/07 05:46:52;;;;;;;;;;;;;;;11.08;76.88;99681.06;6123786;23;1299;-77
2022/10/07 05:49:18;;;;;;;;;;;;;;;11.08;76.94;99683.75;6124262;23;1913;-77
2022/10/07 05:51:45;;;;;;;;;;;;;;;11.06;76.88;99671.56;6149577;23;773;-77
2022/10/07 05:54:11;;;;;;;;;;;;;;;11.07;76.92;99673.22;6124664;23;1138;-77
2022/10/07 05:56:38;;;;;;;;;;;;;;;11.10;76.84;99673.56;6150054;23;1007;-77
2022/10/07 05:59:04;;;;;;;;;;;;;;;11.19;76.47;99668.56;6122809;23;1440;-77
2022/10/07 06:01:31;;;;;;;;;;;;;;;11.28;75.96;99664.41;6122343;23;1194;-77
2022/10/07 06:03:57;;;;;;;;;;;;;;;11.32;76.07;99662.03;6154842;23;813;-77
2022/10/07 06:06:24;;;;;;;;;;;;;;;11.16;76.39;99660.97;6156850;23;952;-77
2022/10/07 06:08:50;;;;;;;;;;;;;;;11.36;76.17;99650.53;6150505;23;1905;-77
2022/10/07 06:14:01;;;;;;;;;;;;;;;11.13;76.74;99646.13;6153305;23;761;-77
2022/10/07 06:16:28;;;;;;;;;;;;;;;11.18;76.78;99636.47;6152146;23;951;-77
2022/10/07 06:18:54;;;;;;;;;;;;;;;11.21;76.45;99647.59;6152779;23;1161;-77
2022/10/07 06:21:22;;;;;;;;;;;;;;;11.17;76.74;99641.03;6152258;23;1009;-77
2022/10/07 06:23:50;;;;;;;;;;;;;;;11.14;76.88;99644.22;6126131;23;1103;-78
2022/10/07 06:26:16;;;;;;;;;;;;;;;11.19;76.88;99630.03;6152721;23;865;-77
2022/10/07 06:28:43;;;;;;;;;;;;;;;11.30;76.32;99639.91;6127853;23;1896;-75
2022/10/07 06:31:09;;;;;;;;;;;;;;;11.24;76.67;99633.63;6124169;23;1727;-77
2022/10/07 06:33:36;;;;;;;;;;;;;;;11.31;76.41;99639.66;6149158;23;794;-77
2022/10/07 06:36:02;;;;;;;;;;;;;;;11.20;76.58;99624.38;6147900;23;746;-77
2022/10/07 06:38:29;;;;;;;;;;;;;;;11.30;76.23;99634.53;6125755;23;2487;-77
2022/10/07 06:40:57;;;;;;;;;;;;;;;11.29;76.44;99630.16;6126222;23;1291;-77
2022/10/07 06:43:24;;;;;;;;;;;;;;;11.32;76.53;99629.69;6124120;23;1695;-77
2022/10/07 06:45:50;;;;;;;;;;;;;;;11.33;76.44;99617.84;6151525;23;1539;-77
2022/10/07 06:48:17;;;;;;;;;;;;;;;11.34;76.36;99627.56;6152244;23;825;-77
2022/10/07 06:50:44;;;;;;;;;;;;;;;11.36;76.48;99620.06;6154004;23;1943;-77
2022/10/07 06:53:10;;;;;;;;;;;;;;;11.49;75.75;99622.38;6151898;23;852;-77
2022/10/07 06:55:37;;;;;;;;;;;;;;;11.39;76.25;99622.25;6152316;23;872;-77
2022/10/07 06:58:03;;;;;;;;;;;;;;;11.28;76.77;99613.19;6154305;23;983;-77
2022/10/07 07:00:30;;;;;;;;;;;;;;;11.32;76.76;99626.97;6129550;23;865;-77
2022/10/07 07:02:59;;;;;;;;;;;;;;;11.29;76.68;99612.13;6153811;23;837;-77
2022/10/07 07:05:26;;;;;;;;;;;;;;;11.30;76.69;99629.94;6128563;23;876;-77
2022/10/07 07:07:52;;;;;;;;;;;;;;;11.28;76.72;99636.63;6153440;23;844;-77
2022/10/07 07:10:19;;;;;;;;;;;;;;;11.32;76.88;99624.28;6152024;23;1905;-77
2022/10/07 07:12:45;;;;;;;;;;;;;;;11.29;76.77;99614.00;6127748;23;860;-77
2022/10/07 07:15:12;;;;;;;;;;;;;;;11.35;76.51;99630.03;6127994;23;1414;-78
2022/10/07 07:17:39;;;;;;;;;;;;;;;11.29;76.69;99627.47;6151188;23;804;-77
2022/10/07 07:20:05;;;;;;;;;;;;;;;11.25;77.01;99624.47;6120851;23;861;-77
2022/10/07 07:22:32;;;;;;;;;;;;;;;11.23;77.06;99631.97;6124743;23;889;-77
2022/10/07 07:24:58;;;;;;;;;;;;;;;11.25;77.09;99624.47;6153603;23;816;-78
2022/10/07 07:27:25;;;;;;;;;;;;;;;11.20;77.38;99627.06;6132414;23;1272;-77
2022/10/07 07:29:52;;;;;;;;;;;;;;;11.21;77.41;99614.44;6157070;23;1893;-77
2022/10/07 07:32:18;;;;;;;;;;;;;;;11.22;77.45;99616.06;6155310;23;852;-78
2022/10/07 07:34:45;;;;;;;;;;;;;;;11.22;77.40;99613.38;6153371;23;805;-77
2022/10/07 07:37:11;;;;;;;;;;;;;;;11.20;77.52;99613.59;6126056;23;844;-77
2022/10/07 07:39:38;;;;;;;;;;;;;;;11.18;77.41;99613.06;6150119;23;832;-77
2022/10/07 07:42:04;;;;;;;;;;;;;;;11.20;77.49;99608.22;6146313;23;816;-77
2022/10/07 07:44:32;;;;;;;;;;;;;;;11.21;77.54;99601.78;6151438;23;820;-77
2022/10/07 07:46:58;;;;;;;;;;;;;;;11.20;77.47;99605.50;6154514;23;1312;-77
2022/10/07 07:49:26;;;;;;;;;;;;;;;11.20;77.64;99600.13;6131127;23;1897;-77
2022/10/07 07:51:53;;;;;;;;;;;;;;;11.19;77.62;99587.72;6153940;23;976;-78
2022/10/07 07:54:20;;;;;;;;;;;;;;;11.20;77.55;99593.94;6126969;23;1425;-77
2022/10/07 07:56:46;;;;;;;;;;;;;;;11.21;77.68;99595.56;6153802;23;821;-77
2022/10/07 07:59:13;;;;;;;;;;;;;;;11.20;77.63;99581.25;6155852;23;895;-77
2022/10/07 08:01:39;;;;;;;;;;;;;;;11.21;77.77;99592.88;6126533;23;1379;-78
2022/10/07 08:04:06;;;;;;;;;;;;;;;11.21;77.58;99582.91;6152894;23;824;-77
2022/10/07 08:06:33;;;;;;;;;;;;;;;11.22;77.72;99579.13;6151011;23;796;-77
2022/10/07 08:09:00;;;;;;;;;;;;;;;11.24;77.64;99600.47;6153365;23;1932;-77
2022/10/07 08:11:26;;;;;;;;;;;;;;;11.23;77.76;99591.53;6154704;23;844;-77
2022/10/07 08:13:54;;;;;;;;;;;;;;;11.22;77.74;99581.84;6128428;23;1260;-77
2022/10/07 08:16:21;;;;;;;;;;;;;;;11.23;77.75;99571.88;6154810;23;825;-78
2022/10/07 08:18:48;;;;;;;;;;;;;;;11.24;77.72;99570.81;6153510;23;809;-78
2022/10/07 08:21:14;;;;;;;;;;;;;;;11.23;77.62;99578.06;6153866;23;789;-77
2022/10/07 08:23:41;;;;;;;;;;;;;;;11.24;77.75;99570.81;6127825;23;856;-77
2022/10/07 08:26:08;;;;;;;;;;;;;;;11.24;77.85;99571.63;6152412;23;1033;-77
2022/10/07 08:28:35;;;;;;;;;;;;;;;11.24;77.67;99584.31;6121332;23;853;-77
2022/10/07 08:31:01;;;;;;;;;;;;;;;11.25;77.86;99564.34;6122818;23;1897;-78
2022/10/07 08:33:28;;;;;;;;;;;;;;;11.24;77.67;99558.16;6150806;23;726;-78
2022/10/07 08:35:55;;;;;;;;;;;;;;;11.26;77.79;99574.06;6152452;23;801;-78
2022/10/07 08:38:21;;;;;;;;;;;;;;;11.26;77.77;99576.75;6154354;23;789;-77
2022/10/07 08:40:48;;;;;;;;;;;;;;;11.27;77.87;99570.31;6124291;23;1401;-77
2022/10/07 08:43:14;;;;;;;;;;;;;;;11.27;77.65;99571.13;6151334;23;851;-77
2022/10/07 08:45:41;;;;;;;;;;;;;;;11.26;77.99;99569.47;6119351;23;1264;-77
2022/10/07 08:48:08;;;;;;;;;;;;;;;11.28;78.03;99553.09;6146824;23;837;-77
2022/10/07 08:50:34;;;;;;;;;;;;;;;11.28;77.95;99564.66;6148599;23;1901;-77
2022/10/07 08:53:01;;;;;;;;;;;;;;;11.28;77.67;99561.16;6148523;23;785;-77
2022/10/07 08:55:28;;;;;;;;;;;;;;;11.29;77.66;99541.22;6147795;23;837;-77
2022/10/07 08:57:55;;;;;;;;;;;;;;;11.28;77.67;99563.84;6149713;23;792;-77
2022/10/07 09:00:23;;;;;;;;;;;;;;;11.29;77.99;99544.72;6123294;23;1202;-77
2022/10/07 09:02:50;;;;;;;;;;;;;;;11.30;77.95;99537.47;6150288;23;841;-77
2022/10/07 09:05:16;;;;;;;;;;;;;;;11.30;77.83;99537.47;6150781;23;786;-77
2022/10/07 09:07:44;;;;;;;;;;;;;;;9.58;77.73;99255.50;6126131;23;1299;-77
2022/10/07 09:10:10;;;;;;;;;;;;;;;11.30;77.77;99541.00;6126825;23;1901;-77
2022/10/07 09:12:37;;;;;;;;;;;;;;;11.31;77.97;99541.81;6151332;23;790;-78
2022/10/07 09:15:03;;;;;;;;;;;;;;;11.31;77.87;99525.63;6125982;23;1395;-77
2022/10/07 09:17:30;;;;;;;;;;;;;;;11.32;77.69;99527.25;6149069;23;868;-78
2022/10/07 09:19:57;;;;;;;;;;;;;;;11.32;77.61;99528.09;6149357;23;907;-77
2022/10/07 09:22:24;;;;;;;;;;;;;;;11.32;77.91;99522.69;6119011;23;1344;-77
2022/10/07 09:24:50;;;;;;;;;;;;;;;11.33;78.00;99520.81;6123134;23;1288;-78
2022/10/07 09:27:17;;;;;;;;;;;;;;;11.34;77.69;99525.13;6122316;23;1208;-78
2022/10/07 09:29:43;;;;;;;;;;;;;;;11.35;77.73;99521.34;6119467;23;1933;-77
2022/10/07 09:32:10;;;;;;;;;;;;;;;11.34;77.77;99517.84;6115454;23;856;-77
2022/10/07 09:34:36;;;;;;;;;;;;;;;11.35;77.75;99532.13;6147420;23;817;-78
2022/10/07 09:37:03;;;;;;;;;;;;;;;11.37;77.74;99513.84;6147746;23;848;-77
2022/10/07 09:39:29;;;;;;;;;;;;;;;11.37;77.73;99511.16;6148249;23;836;-78
2022/10/07 09:41:56;;;;;;;;;;;;;;;11.37;77.71;99511.16;6148659;23;825;-77
2022/10/07 09:44:23;;;;;;;;;;;;;;;11.37;77.99;99511.94;6148205;23;991;-78
2022/10/07 09:46:49;;;;;;;;;;;;;;;11.38;78.02;99512.75;6122315;23;1216;-77
2022/10/07 09:49:16;;;;;;;;;;;;;;;11.37;77.92;99509.25;6150326;23;839;-78
2022/10/07 09:51:42;;;;;;;;;;;;;;;11.39;77.83;99513.59;6148405;23;1944;-77
2022/10/07 09:54:09;;;;;;;;;;;;;;;11.39;77.83;99500.13;6152942;23;878;-77
2022/10/07 09:56:35;;;;;;;;;;;;;;;11.39;77.85;99495.53;6152739;23;833;-77
2022/10/07 09:59:02;;;;;;;;;;;;;;;11.39;77.94;99502.81;6150912;23;794;-77
2022/10/07 10:01:29;;;;;;;;;;;;;;;11.39;77.95;99503.63;6150496;23;844;-78
2022/10/07 10:03:56;;;;;;;;;;;;;;;11.39;77.81;99492.84;6148512;23;821;-77
2022/10/07 10:06:23;;;;;;;;;;;;;;;11.40;77.84;99489.06;6121331;23;1326;-77
2022/10/07 10:08:49;;;;;;;;;;;;;;;11.41;77.77;99487.19;6123758;23;1620;-77
2022/10/07 10:11:16;;;;;;;;;;;;;;;11.41;77.83;99481.78;6121632;23;1937;-77
2022/10/07 10:13:42;;;;;;;;;;;;;;;11.42;77.58;99481.56;6151757;23;1000;-77
2022/10/07 10:16:09;;;;;;;;;;;;;;;11.42;77.83;99462.69;6121386;23;1173;-77
2022/10/07 10:18:35;;;;;;;;;;;;;;;11.42;77.75;99470.78;6148077;23;827;-77
2022/10/07 10:21:02;;;;;;;;;;;;;;;11.44;77.83;99460.56;6149780;23;837;-78
2022/10/07 10:23:28;;;;;;;;;;;;;;;11.44;77.84;99465.13;6149127;23;706;-77
2022/10/07 10:28:39;;;;;;;;;;;;;;;11.45;78.13;99469.47;6147227;23;837;-78
2022/10/07 10:31:06;;;;;;;;;;;;;;;11.47;78.08;99470.00;6147420;23;1905;-77
2022/10/07 10:33:33;;;;;;;;;;;;;;;11.47;78.14;99456.53;6149501;23;817;-78
2022/10/07 10:35:59;;;;;;;;;;;;;;;11.48;78.07;99469.78;6150276;23;820;-78
2022/10/07 10:38:26;;;;;;;;;;;;;;;11.48;78.22;99472.47;6148572;23;829;-78
2022/10/07 10:40:53;;;;;;;;;;;;;;;11.48;78.17;99477.84;6149626;23;920;-78
2022/10/07 10:43:20;;;;;;;;;;;;;;;11.48;78.28;99475.16;6149345;23;818;-78
2022/10/07 10:45:47;;;;;;;;;;;;;;;11.49;78.25;99457.91;6149022;23;1200;-77
2022/10/07 10:48:13;;;;;;;;;;;;;;;11.49;78.07;99468.69;6123615;23;1192;-78
2022/10/07 10:50:40;;;;;;;;;;;;;;;11.50;78.26;99461.41;6148685;23;1905;-78
2022/10/07 10:53:07;;;;;;;;;;;;;;;11.50;78.30;99459.56;6150684;23;837;-77
2022/10/07 10:55:33;;;;;;;;;;;;;;;11.52;78.14;99473.59;6123432;23;805;-78
2022/10/07 10:58:00;;;;;;;;;;;;;;;11.53;78.31;99463.59;6124086;23;1286;-78
2022/10/07 11:00:26;;;;;;;;;;;;;;;11.53;78.37;99471.69;6148749;23;742;-78
2022/10/07 11:02:54;;;;;;;;;;;;;;;11.53;78.27;99469.00;6124119;23;872;-77
2022/10/07 11:05:20;;;;;;;;;;;;;;;11.53;78.11;99459.06;6122546;23;1187;-78
2022/10/07 11:07:47;;;;;;;;;;;;;;;11.54;78.44;99489.53;6150223;23;833;-77
2022/10/07 11:10:13;;;;;;;;;;;;;;;11.54;78.37;99465.25;6148859;23;1939;-77
2022/10/07 11:12:40;;;;;;;;;;;;;;;11.55;78.30;99446.09;6147509;23;856;-78
2022/10/07 11:15:06;;;;;;;;;;;;;;;11.55;78.29;99462.28;6151948;23;829;-77
2022/10/07 11:17:34;;;;;;;;;;;;;;;11.56;78.35;99452.34;6125844;23;835;-77
2022/10/07 11:20:03;;;;;;;;;;;;;;;11.57;78.30;99452.06;6151482;23;971;-78
2022/10/07 11:22:31;;;;;;;;;;;;;;;11.57;78.39;99445.88;6153939;23;844;-77
2022/10/07 11:24:59;;;;;;;;;;;;;;;11.57;78.41;99449.38;6153495;23;813;-77
2022/10/07 11:27:25;;;;;;;;;;;;;;;11.58;78.36;99452.88;6155265;23;738;-77
2022/10/07 11:29:52;;;;;;;;;;;;;;;11.58;78.44;99450.19;6152680;23;1936;-78
2022/10/07 11:32:18;;;;;;;;;;;;;;;11.58;78.38;99431.31;6150566;23;801;-77
2022/10/07 11:34:45;;;;;;;;;;;;;;;11.59;78.39;99430.25;6149025;23;848;-78
2022/10/07 11:37:11;;;;;;;;;;;;;;;11.63;78.44;99438.66;6148681;23;844;-78
2022/10/07 11:39:38;;;;;;;;;;;;;;;11.63;78.38;99422.47;6152142;23;1015;-78
2022/10/07 11:42:04;;;;;;;;;;;;;;;11.63;78.45;99425.16;6122362;23;1301;-78
2022/10/07 11:44:31;;;;;;;;;;;;;;;11.63;78.42;99422.47;6121726;23;2394;-77
2022/10/07 11:46:57;;;;;;;;;;;;;;;11.62;78.63;99427.06;6147307;23;1360;-77
2022/10/07 11:49:24;;;;;;;;;;;;;;;11.63;78.63;99433.25;6122616;23;1359;-77
2022/10/07 11:51:50;;;;;;;;;;;;;;;11.64;78.42;99441.09;6148848;23;1893;-78
2022/10/07 11:54:17;;;;;;;;;;;;;;;11.64;78.76;99416.00;6150749;23;830;-78
2022/10/07 11:56:43;;;;;;;;;;;;;;;11.65;78.69;99423.00;6121253;23;1999;-78
2022/10/07 11:59:10;;;;;;;;;;;;;;;11.66;78.58;99430.06;6122376;23;1141;-77
2022/10/07 12:01:37;;;;;;;;;;;;;;;11.66;78.62;99427.34;6151000;23;823;-78
2022/10/07 12:04:03;;;;;;;;;;;;;;;11.66;78.67;99425.47;6148107;23;963;-77
2022/10/07 12:06:30;;;;;;;;;;;;;;;11.65;78.66;99413.06;6119739;23;1129;-78
2022/10/07 12:08:56;;;;;;;;;;;;;;;11.66;78.58;99421.97;6150633;23;970;-77
2022/10/07 12:11:23;;;;;;;;;;;;;;;11.67;78.60;99412.78;6148692;23;1939;-77
2022/10/07 12:13:50;;;;;;;;;;;;;;;11.67;78.66;99407.41;6123567;23;1321;-77
2022/10/07 12:16:17;;;;;;;;;;;;;;;11.67;78.49;99408.22;6148671;23;837;-77
2022/10/07 12:18:44;;;;;;;;;;;;;;;11.68;78.44;99390.97;6127956;23;999;-77
2022/10/07 12:21:10;;;;;;;;;;;;;;;11.68;78.55;99384.78;6147320;23;984;-78
2022/10/07 12:23:37;;;;;;;;;;;;;;;11.68;78.59;99388.28;6145155;23;1158;-78
2022/10/07 12:26:03;;;;;;;;;;;;;;;11.69;78.68;99389.09;6124504;23;932;-78
2022/10/07 12:28:30;;;;;;;;;;;;;;;11.70;78.50;99382.63;6124721;23;987;-77
2022/10/07 12:30:56;;;;;;;;;;;;;;;11.70;78.63;99388.00;6152223;23;1972;-78
2022/10/07 12:33:23;;;;;;;;;;;;;;;11.70;78.56;99379.91;6150607;23;866;-78
2022/10/07 12:35:52;;;;;;;;;;;;;;;11.70;78.54;99372.63;6125524;23;892;-78
2022/10/07 12:38:21;;;;;;;;;;;;;;;11.70;78.55;99367.25;6127529;23;782;-78
2022/10/07 12:40:48;;;;;;;;;;;;;;;11.70;78.71;99372.63;6148823;23;999;-77
2022/10/07 12:43:14;;;;;;;;;;;;;;;11.71;78.62;99390.47;6149342;23;869;-77
2022/10/07 12:45:42;;;;;;;;;;;;;;;11.73;78.60;99371.31;6124768;23;1278;-76
2022/10/07 12:48:08;;;;;;;;;;;;;;;11.73;78.63;99371.31;6150325;23;1014;-76
2022/10/07 12:50:35;;;;;;;;;;;;;;;11.73;78.63;99379.41;6124107;23;1897;-77
2022/10/07 12:53:01;;;;;;;;;;;;;;;11.72;78.63;99362.41;6148340;23;1144;-74
2022/10/07 12:55:28;;;;;;;;;;;;;;;11.73;78.58;99372.13;6154277;23;1051;-77
2022/10/07 12:59:45;;;;;;;;;;;;;;;11.74;78.60;99383.75;6157222;23;832;-77
2022/10/07 13:00:40;;;;;;;;;;;;;;;11.74;78.92;99368.38;6157371;23;1235;-77
2022/10/07 13:03:06;;;;;;;;;;;;;;;11.74;78.56;99362.97;6151078;23;960;-77